createdAt,value
2023-03-01T00:01:22.298Z,62.87
2023-03-01T00:03:50.740Z,62.83
2023-03-01T00:06:18.955Z,63.40
2023-03-01T00:08:47.117Z,62.30
2023-03-01T00:11:17.919Z,61.60
2023-03-01T00:13:46.987Z,61.20
2023-03-01T00:16:17.821Z,61.70
2023-03-01T00:18:47.559Z,59.93
2023-03-01T00:21:16.098Z,63.47
2023-03-01T00:23:44.103Z,58.97
2023-03-01T00:26:14.423Z,62.07
2023-03-01T00:28:42.739Z,57.93
2023-03-01T00:31:13.233Z,59.67
2023-03-01T00:33:41.318Z,61.80
2023-03-01T00:36:12.940Z,59.17
2023-03-01T00:38:42.319Z,61.50
2023-03-01T00:41:12.234Z,59.67
2023-03-01T00:43:40.528Z,63.87
2023-03-01T00:46:10.701Z,60.70
2023-03-01T00:48:38.789Z,62.57
2023-03-01T00:51:08.272Z,57.60
2023-03-01T00:53:38.346Z,63.77
2023-03-01T00:56:08.144Z,60.97
2023-03-01T00:58:36.958Z,61.30
2023-03-01T01:01:20.112Z,64.47
2023-03-01T01:03:49.209Z,65.27
2023-03-01T01:06:19.286Z,61.87
2023-03-01T01:08:49.035Z,61.17
2023-03-01T01:11:17.534Z,60.87
2023-03-01T01:13:47.233Z,63.13
2023-03-01T01:16:15.688Z,63.90
2023-03-01T01:18:43.964Z,61.13
2023-03-01T01:21:13.868Z,58.33
2023-03-01T01:23:43.614Z,59.57
2023-03-01T01:26:15.896Z,61.27
2023-03-01T01:28:43.894Z,58.77
2023-03-01T01:31:12.195Z,60.93
2023-03-01T01:33:40.416Z,59.70
2023-03-01T01:36:09.346Z,59.40
2023-03-01T01:38:38.377Z,59.60
2023-03-01T01:41:07.465Z,60.93
2023-03-01T01:43:39.635Z,65.77
2023-03-01T01:46:15.933Z,62.50
2023-03-01T01:48:48.775Z,61.00
2023-03-01T01:51:20.626Z,57.77
2023-03-01T01:53:51.548Z,56.70
2023-03-01T01:56:20.569Z,56.60
2023-03-01T01:58:50.326Z,56.00
2023-03-01T02:01:18.567Z,55.93
2023-03-01T02:03:49.740Z,53.77
2023-03-01T02:06:23.877Z,52.80
2023-03-01T02:08:54.660Z,54.00
2023-03-01T02:11:23.323Z,52.93
2023-03-01T02:13:52.981Z,54.53
2023-03-01T02:16:22.096Z,51.93
2023-03-01T02:18:51.859Z,49.27
2023-03-01T02:21:40.662Z,51.80
2023-03-01T02:24:29.814Z,51.83
2023-03-01T02:26:59.794Z,51.77
2023-03-01T02:29:30.354Z,55.97
2023-03-01T02:32:01.667Z,53.80
2023-03-01T02:34:30.800Z,52.70
2023-03-01T02:37:02.098Z,54.77
2023-03-01T02:39:33.096Z,56.13
2023-03-01T02:42:01.342Z,56.27
2023-03-01T02:44:30.679Z,54.73
2023-03-01T02:47:00.104Z,53.47
2023-03-01T02:49:31.567Z,52.73
2023-03-01T02:52:16.750Z,53.50
2023-03-01T02:54:50.617Z,53.97
2023-03-01T02:57:19.629Z,51.83
2023-03-01T02:59:49.433Z,51.43
2023-03-01T03:02:36.901Z,50.23
2023-03-01T03:05:11.134Z,50.53
2023-03-01T03:07:42.096Z,51.27
2023-03-01T03:10:14.460Z,47.90
2023-03-01T03:12:42.859Z,47.33
2023-03-01T03:15:13.792Z,47.93
2023-03-01T03:17:45.284Z,45.30
2023-03-01T03:20:20.138Z,44.83
2023-03-01T03:22:49.314Z,47.17
2023-03-01T03:25:18.119Z,48.67
2023-03-01T03:27:48.152Z,48.77
2023-03-01T03:30:20.688Z,47.97
2023-03-01T03:32:53.274Z,45.47
2023-03-01T03:35:23.049Z,45.67
2023-03-01T03:38:07.324Z,45.90
2023-03-01T03:40:37.150Z,43.87
2023-03-01T03:43:06.532Z,45.57
2023-03-01T03:45:36.184Z,44.53
2023-03-01T03:48:05.864Z,45.13
2023-03-01T03:50:34.465Z,45.43
2023-03-01T03:53:03.309Z,46.23
2023-03-01T03:55:31.869Z,47.30
2023-03-01T03:58:07.809Z,46.07
2023-03-01T04:00:38.770Z,47.47
2023-03-01T04:03:07.477Z,49.90
2023-03-01T04:05:35.587Z,50.67
2023-03-01T04:08:08.209Z,47.53
2023-03-01T04:10:39.170Z,47.87
2023-03-01T04:13:08.149Z,47.30
2023-03-01T04:15:37.741Z,49.13
2023-03-01T04:18:07.098Z,53.80
2023-03-01T04:20:37.250Z,55.43
2023-03-01T04:23:11.688Z,55.43
2023-03-01T04:25:41.603Z,56.80
2023-03-01T04:28:10.001Z,53.23
2023-03-01T04:30:39.873Z,54.80
2023-03-01T04:33:09.462Z,60.10
2023-03-01T04:35:38.644Z,70.23
2023-03-01T04:38:07.438Z,70.60
2023-03-01T04:40:35.887Z,68.77
2023-03-01T04:43:05.097Z,56.60
2023-03-01T04:45:35.487Z,55.50
2023-03-01T04:48:05.714Z,49.63
2023-03-01T04:50:33.717Z,48.87
2023-03-01T04:53:01.672Z,49.33
2023-03-01T04:55:30.399Z,47.13
2023-03-01T04:57:58.412Z,47.10
2023-03-01T05:00:26.564Z,46.80
2023-03-01T05:02:56.899Z,45.43
2023-03-01T05:05:28.727Z,46.43
2023-03-01T05:07:58.327Z,44.93
2023-03-01T05:10:27.995Z,45.97
2023-03-01T05:12:56.319Z,49.00
2023-03-01T05:15:26.548Z,48.07
2023-03-01T05:17:55.203Z,47.27
2023-03-01T05:20:24.924Z,47.10
2023-03-01T05:22:59.609Z,49.10
2023-03-01T05:25:28.212Z,48.80
2023-03-01T05:27:56.241Z,47.63
2023-03-01T05:30:24.381Z,49.90
2023-03-01T05:32:56.601Z,48.23
2023-03-01T05:35:25.207Z,51.43
2023-03-01T05:37:54.862Z,52.83
2023-03-01T05:40:25.163Z,50.10
2023-03-01T05:42:55.813Z,48.27
2023-03-01T05:45:25.390Z,49.17
2023-03-01T05:47:53.860Z,51.80
2023-03-01T05:50:24.000Z,52.57
2023-03-01T05:52:58.722Z,54.00
2023-03-01T05:55:29.021Z,55.90
2023-03-01T05:57:57.350Z,58.23
2023-03-01T06:00:25.519Z,58.20
2023-03-01T06:02:53.533Z,58.00
2023-03-01T06:05:21.629Z,57.77
2023-03-01T06:07:51.017Z,54.87
2023-03-01T06:10:21.978Z,56.17
2023-03-01T06:12:50.182Z,54.43
2023-03-01T06:15:19.172Z,56.23
2023-03-01T06:17:50.125Z,57.63
2023-03-01T06:20:19.832Z,56.03
2023-03-01T06:22:48.602Z,56.03
2023-03-01T06:25:18.713Z,54.23
2023-03-01T06:27:49.975Z,58.20
2023-03-01T06:30:20.303Z,59.00
2023-03-01T06:32:48.507Z,58.33
2023-03-01T06:35:18.616Z,57.70
2023-03-01T06:37:46.718Z,65.20
2023-03-01T06:40:16.013Z,63.93
2023-03-01T06:42:50.536Z,63.53
2023-03-01T06:45:19.546Z,63.87
2023-03-01T06:47:47.795Z,65.00
2023-03-01T06:50:16.770Z,61.93
2023-03-01T06:55:14.935Z,59.73
2023-03-01T06:57:43.056Z,62.83
2023-03-01T07:00:14.000Z,59.47
2023-03-01T07:02:42.047Z,56.90
2023-03-01T07:05:10.397Z,56.37
2023-03-01T07:07:38.402Z,55.00
2023-03-01T07:10:09.221Z,56.50
2023-03-01T07:12:37.341Z,54.30
2023-03-01T07:15:06.413Z,54.90
2023-03-01T07:17:35.735Z,53.87
2023-03-01T07:20:03.697Z,54.97
2023-03-01T07:22:31.645Z,55.70
2023-03-01T07:24:59.606Z,57.60
2023-03-01T07:27:27.561Z,55.93
2023-03-01T07:29:55.548Z,52.50
2023-03-01T07:32:23.643Z,46.80
2023-03-01T07:34:53.364Z,47.70
2023-03-01T07:37:21.327Z,48.80
2023-03-01T07:39:49.294Z,49.33
2023-03-01T07:42:17.216Z,45.13
2023-03-01T07:44:45.224Z,49.55
2023-03-01T07:47:13.145Z,44.00
2023-03-01T07:49:41.145Z,41.23
2023-03-01T07:52:12.221Z,42.17
2023-03-01T07:54:40.304Z,38.30
2023-03-01T07:57:08.287Z,39.60
2023-03-01T07:59:36.398Z,39.17
2023-03-01T08:02:04.667Z,35.03
2023-03-01T08:04:32.642Z,33.10
2023-03-01T08:07:00.717Z,36.87
2023-03-01T08:09:30.036Z,37.40
2023-03-01T08:12:00.394Z,40.50
2023-03-01T08:14:28.535Z,38.00
2023-03-01T08:16:56.586Z,38.10
2023-03-01T08:19:25.981Z,39.37
2023-03-01T08:21:53.940Z,38.03
2023-03-01T08:24:21.925Z,40.83
2023-03-01T08:26:51.325Z,40.73
2023-03-01T08:29:19.295Z,39.43
2023-03-01T08:31:47.298Z,40.60
2023-03-01T08:34:17.758Z,40.97
2023-03-01T08:36:47.955Z,38.67
2023-03-01T08:39:18.130Z,28.90
2023-03-01T08:41:48.230Z,29.40
2023-03-01T08:44:18.663Z,29.40
2023-03-01T08:46:47.504Z,28.70
2023-03-01T08:49:17.364Z,29.57
2023-03-01T08:51:46.152Z,28.23
2023-03-01T08:54:15.740Z,28.93
2023-03-01T08:56:44.224Z,26.27
2023-03-01T08:59:13.468Z,24.77
2023-03-01T09:01:44.609Z,25.37
2023-03-01T09:04:13.027Z,24.60
2023-03-01T09:06:41.089Z,24.07
2023-03-01T09:09:15.953Z,23.37
2023-03-01T09:11:44.689Z,23.37
2023-03-01T09:14:13.704Z,26.67
2023-03-01T09:16:43.388Z,25.70
2023-03-01T09:19:12.099Z,25.23
2023-03-01T09:21:41.345Z,23.90
2023-03-01T09:24:15.246Z,22.13
2023-03-01T09:26:43.707Z,22.30
2023-03-01T09:29:11.713Z,23.70
2023-03-01T09:31:40.223Z,24.23
2023-03-01T09:34:10.302Z,26.50
2023-03-01T09:36:38.798Z,27.67
2023-03-01T09:39:07.989Z,27.63
2023-03-01T09:41:48.188Z,27.73
2023-03-01T09:44:26.253Z,26.70
2023-03-01T09:46:54.377Z,29.80
2023-03-01T09:49:27.366Z,30.07
2023-03-01T09:52:02.708Z,29.70
2023-03-01T09:54:30.799Z,27.47
2023-03-01T09:57:13.666Z,27.50
2023-03-01T09:59:58.150Z,27.83
2023-03-01T10:02:32.821Z,28.97
2023-03-01T10:05:14.237Z,27.97
2023-03-01T10:07:50.488Z,28.90
2023-03-01T10:10:28.761Z,27.57
2023-03-01T10:12:58.069Z,27.47
2023-03-01T10:15:36.756Z,27.37
2023-03-01T10:18:08.738Z,27.53
2023-03-01T10:20:47.532Z,26.60
2023-03-01T10:23:15.501Z,24.80
2023-03-01T10:25:56.031Z,23.67
2023-03-01T10:28:31.798Z,22.57
2023-03-01T10:31:01.358Z,23.03
2023-03-01T10:33:33.352Z,22.77
2023-03-01T10:36:02.850Z,22.27
2023-03-01T10:38:34.056Z,22.53
2023-03-01T10:41:07.474Z,21.57
2023-03-01T10:43:47.129Z,22.27
2023-03-01T10:46:34.404Z,21.37
2023-03-01T10:49:15.502Z,23.63
2023-03-01T10:51:47.195Z,20.70
2023-03-01T10:54:20.896Z,21.53
2023-03-01T10:56:51.194Z,21.20
2023-03-01T10:59:27.442Z,20.80
2023-03-01T11:02:24.848Z,20.00
2023-03-01T11:05:01.024Z,19.73
2023-03-01T11:07:31.092Z,20.50
2023-03-01T11:09:59.099Z,21.67
2023-03-01T11:12:29.925Z,20.83
2023-03-01T11:14:58.104Z,18.83
2023-03-01T11:17:31.595Z,19.43
2023-03-01T11:20:08.959Z,19.90
2023-03-01T11:22:38.492Z,18.87
2023-03-01T11:25:10.890Z,19.87
2023-03-01T11:27:43.911Z,19.87
2023-03-01T11:30:22.382Z,19.43
2023-03-01T11:32:57.372Z,19.50
2023-03-01T11:35:28.773Z,18.73
2023-03-01T11:38:17.362Z,18.23
2023-03-01T11:40:49.479Z,16.87
2023-03-01T11:43:22.557Z,18.80
2023-03-01T11:46:26.161Z,18.47
2023-03-01T11:49:05.762Z,19.77
2023-03-01T11:51:48.419Z,18.00
2023-03-01T11:54:29.928Z,18.77
2023-03-01T11:57:04.518Z,18.53
2023-03-01T12:00:05.343Z,18.00
2023-03-01T12:02:51.868Z,17.50
2023-03-01T12:05:34.421Z,18.60
2023-03-01T12:08:10.203Z,17.97
2023-03-01T12:10:46.478Z,18.27
2023-03-01T12:13:40.818Z,17.57
2023-03-01T12:16:37.527Z,17.93
2023-03-01T12:19:31.941Z,18.97
2023-03-01T12:22:12.675Z,20.10
2023-03-01T12:25:05.117Z,19.10
2023-03-01T12:27:47.801Z,19.07
2023-03-01T12:30:31.917Z,19.43
2023-03-01T12:33:18.236Z,20.20
2023-03-01T12:36:00.229Z,17.83
2023-03-01T12:38:37.908Z,18.57
2023-03-01T12:41:29.511Z,17.47
2023-03-01T12:44:13.111Z,19.47
2023-03-01T12:46:55.234Z,17.37
2023-03-01T12:49:28.893Z,18.13
2023-03-01T12:52:01.623Z,16.37
2023-03-01T12:54:32.344Z,17.33
2023-03-01T12:57:11.026Z,18.23
2023-03-01T12:59:44.910Z,17.43
2023-03-01T13:02:26.862Z,17.73
2023-03-01T13:05:05.030Z,16.67
2023-03-01T13:07:37.484Z,18.27
2023-03-01T13:10:20.211Z,18.40
2023-03-01T13:12:53.855Z,18.00
2023-03-01T13:15:32.100Z,16.83
2023-03-01T13:18:02.078Z,16.90
2023-03-01T13:20:35.163Z,15.37
2023-03-01T13:23:06.544Z,14.37
2023-03-01T13:25:42.011Z,15.03
2023-03-01T13:28:41.672Z,15.27
2023-03-01T13:31:14.759Z,15.23
2023-03-01T13:33:47.545Z,15.20
2023-03-01T13:36:49.623Z,14.63
2023-03-01T13:39:33.482Z,16.47
2023-03-01T13:42:02.340Z,15.27
2023-03-01T13:44:34.829Z,14.97
2023-03-01T13:47:16.249Z,14.83
2023-03-01T13:49:48.322Z,15.43
2023-03-01T13:52:36.764Z,15.70
2023-03-01T13:55:08.137Z,15.07
2023-03-01T13:57:40.245Z,15.07
2023-03-01T14:00:10.036Z,15.77
2023-03-01T14:02:39.542Z,15.90
2023-03-01T14:05:12.705Z,15.90
2023-03-01T14:07:42.405Z,15.77
2023-03-01T14:10:14.116Z,14.90
2023-03-01T14:12:48.867Z,15.20
2023-03-01T14:15:22.185Z,15.43
2023-03-01T14:18:05.182Z,14.63
2023-03-01T14:20:36.478Z,15.60
2023-03-01T14:23:12.382Z,15.60
2023-03-01T14:25:40.505Z,16.10
2023-03-01T14:28:19.077Z,15.33
2023-03-01T14:30:48.441Z,21.33
2023-03-01T14:33:26.436Z,19.97
2023-03-01T14:35:57.711Z,18.07
2023-03-01T14:38:31.003Z,18.60
2023-03-01T14:41:05.582Z,18.83
2023-03-01T14:43:35.141Z,17.33
2023-03-01T14:46:03.564Z,15.57
2023-03-01T14:48:34.255Z,15.50
2023-03-01T14:51:02.296Z,15.17
2023-03-01T14:53:40.051Z,14.73
2023-03-01T14:56:18.470Z,15.20
2023-03-01T14:58:48.565Z,15.87
2023-03-01T15:01:19.357Z,19.53
2023-03-01T15:03:50.538Z,18.03
2023-03-01T15:06:21.455Z,17.80
2023-03-01T15:08:51.641Z,23.67
2023-03-01T15:11:23.776Z,21.03
2023-03-01T15:13:52.169Z,18.63
2023-03-01T15:16:23.298Z,16.90
2023-03-01T15:18:56.026Z,17.13
2023-03-01T15:21:25.963Z,15.73
2023-03-01T15:23:56.236Z,16.50
2023-03-01T15:26:30.529Z,19.07
2023-03-01T15:29:01.285Z,22.37
2023-03-01T15:31:31.976Z,24.40
2023-03-01T15:34:26.050Z,22.53
2023-03-01T15:36:55.535Z,19.47
2023-03-01T15:39:38.225Z,18.90
2023-03-01T15:42:08.394Z,20.07
2023-03-01T15:44:43.768Z,19.53
2023-03-01T15:47:26.811Z,18.97
2023-03-01T15:49:58.171Z,18.53
2023-03-01T15:52:30.162Z,18.93
2023-03-01T15:55:01.358Z,18.03
2023-03-01T15:57:29.477Z,19.20
2023-03-01T15:59:57.893Z,19.23
2023-03-01T16:02:26.768Z,18.30
2023-03-01T16:04:57.392Z,17.40
2023-03-01T16:07:27.834Z,18.40
2023-03-01T16:09:55.870Z,17.73
2023-03-01T16:12:25.139Z,17.37
2023-03-01T16:14:54.021Z,17.20
2023-03-01T16:17:21.993Z,16.93
2023-03-01T16:19:49.955Z,17.13
2023-03-01T16:22:22.028Z,17.07
2023-03-01T16:24:50.007Z,18.10
2023-03-01T16:27:19.500Z,18.57
2023-03-01T16:29:47.501Z,19.83
2023-03-01T16:32:15.528Z,17.33
2023-03-01T16:34:43.657Z,18.27
2023-03-01T16:37:11.619Z,20.07
2023-03-01T16:39:41.632Z,19.27
2023-03-01T16:42:09.628Z,18.27
2023-03-01T16:44:37.605Z,18.40
2023-03-01T16:47:06.131Z,19.83
2023-03-01T16:49:34.048Z,22.50
2023-03-01T16:52:01.997Z,23.47
2023-03-01T16:54:29.963Z,22.73
2023-03-01T16:56:59.266Z,30.13
2023-03-01T16:59:27.265Z,25.73
2023-03-01T17:01:55.212Z,26.97
2023-03-01T17:04:23.220Z,25.27
2023-03-01T17:06:51.927Z,25.03
2023-03-01T17:09:22.953Z,24.90
2023-03-01T17:11:51.126Z,23.23
2023-03-01T17:14:20.533Z,22.93
2023-03-01T17:16:48.591Z,24.90
2023-03-01T17:19:18.633Z,24.60
2023-03-01T17:21:47.110Z,23.87
2023-03-01T17:24:15.338Z,23.27
2023-03-01T17:26:43.428Z,24.43
2023-03-01T17:29:13.244Z,27.43
2023-03-01T17:31:42.602Z,28.77
2023-03-01T17:34:10.600Z,27.30
2023-03-01T17:36:43.995Z,28.37
2023-03-01T17:39:12.145Z,28.87
2023-03-01T17:41:40.198Z,31.20
2023-03-01T17:44:08.164Z,31.87
2023-03-01T17:46:36.533Z,32.40
2023-03-01T17:49:05.957Z,29.77
2023-03-01T17:51:34.499Z,28.93
2023-03-01T17:54:02.599Z,25.70
2023-03-01T17:56:32.073Z,23.50
2023-03-01T17:59:00.024Z,25.53
2023-03-01T18:01:28.146Z,25.73
2023-03-01T18:03:56.257Z,25.60
2023-03-01T18:06:29.499Z,25.50
2023-03-01T18:08:57.657Z,23.73
2023-03-01T18:11:26.532Z,22.53
2023-03-01T18:13:55.197Z,23.77
2023-03-01T18:16:24.127Z,23.27
2023-03-01T18:18:55.266Z,23.70
2023-03-01T18:21:24.852Z,22.27
2023-03-01T18:23:53.083Z,22.63
2023-03-01T18:26:22.524Z,23.60
2023-03-01T18:28:51.723Z,25.53
2023-03-01T18:31:22.233Z,24.07
2023-03-01T18:33:52.497Z,30.10
2023-03-01T18:36:23.592Z,30.87
2023-03-01T18:38:56.149Z,33.40
2023-03-01T18:41:25.276Z,39.20
2023-03-01T18:43:53.604Z,39.33
2023-03-01T18:46:22.097Z,39.20
2023-03-01T18:48:50.413Z,39.73
2023-03-01T18:51:20.186Z,35.53
2023-03-01T18:53:48.780Z,33.87
2023-03-01T18:56:18.417Z,33.20
2023-03-01T18:58:46.694Z,32.47
2023-03-01T19:01:17.618Z,30.60
2023-03-01T19:03:46.015Z,29.97
2023-03-01T19:06:13.981Z,31.67
2023-03-01T19:08:43.257Z,34.63
2023-03-01T19:11:12.318Z,34.23
2023-03-01T19:13:42.680Z,39.90
2023-03-01T19:16:12.780Z,41.33
2023-03-01T19:18:42.591Z,44.20
2023-03-01T19:21:12.169Z,45.47
2023-03-01T19:23:40.184Z,47.87
2023-03-01T19:26:10.377Z,48.50
2023-03-01T19:28:39.784Z,50.67
2023-03-01T19:31:10.844Z,49.73
2023-03-01T19:33:40.029Z,48.00
2023-03-01T19:36:09.572Z,50.67
2023-03-01T19:38:38.436Z,47.13
2023-03-01T19:41:07.319Z,46.63
2023-03-01T19:43:35.430Z,45.63
2023-03-01T19:46:03.526Z,49.67
2023-03-01T19:48:32.886Z,50.60
2023-03-01T19:51:00.863Z,84.43
2023-03-01T19:53:28.934Z,94.30
2023-03-01T19:55:59.460Z,95.13
2023-03-01T19:58:28.365Z,117.20
2023-03-01T20:00:58.785Z,108.70
2023-03-01T20:03:27.990Z,80.67
2023-03-01T20:05:58.378Z,54.30
2023-03-01T20:08:27.075Z,53.87
2023-03-01T20:10:55.013Z,51.17
2023-03-01T20:13:23.207Z,48.43
2023-03-01T20:15:51.269Z,50.97
2023-03-01T20:18:19.230Z,47.20
2023-03-01T20:20:50.136Z,47.10
2023-03-01T20:23:20.005Z,52.87
2023-03-01T20:25:49.373Z,54.73
2023-03-01T20:28:17.686Z,49.60
2023-03-01T20:30:46.386Z,48.40
2023-03-01T20:33:14.370Z,50.77
2023-03-01T20:35:43.501Z,52.57
2023-03-01T20:38:11.525Z,57.67
2023-03-01T20:40:40.820Z,58.70
2023-03-01T20:43:08.762Z,58.23
2023-03-01T20:45:39.123Z,54.23
2023-03-01T20:48:07.474Z,54.73
2023-03-01T20:50:35.501Z,50.93
2023-03-01T20:53:03.488Z,52.03
2023-03-01T20:55:31.444Z,52.57
2023-03-01T20:58:00.930Z,51.43
2023-03-01T21:00:29.358Z,53.57
2023-03-01T21:02:57.573Z,50.13
2023-03-01T21:05:25.583Z,56.37
2023-03-01T21:07:53.534Z,56.87
2023-03-01T21:10:21.618Z,63.70
2023-03-01T21:12:49.631Z,67.07
2023-03-01T21:15:28.662Z,70.80
2023-03-01T21:17:56.875Z,74.30
2023-03-01T21:20:24.986Z,75.17
2023-03-01T21:22:52.923Z,78.80
2023-03-01T21:25:20.856Z,88.73
2023-03-01T21:27:48.793Z,87.70
2023-03-01T21:30:18.674Z,85.80
2023-03-01T21:32:46.753Z,85.43
2023-03-01T21:35:14.860Z,70.53
2023-03-01T21:37:42.831Z,78.90
2023-03-01T21:40:11.976Z,71.37
2023-03-01T21:42:40.619Z,61.03
2023-03-01T21:45:09.409Z,50.90
2023-03-01T21:47:39.401Z,48.10
2023-03-01T21:50:08.820Z,48.07
2023-03-01T21:52:36.794Z,44.93
2023-03-01T21:55:05.282Z,43.60
2023-03-01T21:57:33.255Z,43.50
2023-03-01T22:00:01.198Z,43.10
2023-03-01T22:02:29.181Z,41.30
2023-03-01T22:04:58.825Z,40.10
2023-03-01T22:07:26.890Z,45.47
2023-03-01T22:09:55.057Z,40.53
2023-03-01T22:12:23.010Z,40.03
2023-03-01T22:14:50.962Z,44.87
2023-03-01T22:17:18.918Z,44.67
2023-03-01T22:19:46.893Z,44.23
2023-03-01T22:22:16.248Z,45.17
2023-03-01T22:24:44.190Z,49.50
2023-03-01T22:27:12.131Z,50.73
2023-03-01T22:29:40.111Z,48.03
2023-03-01T22:32:08.107Z,51.77
2023-03-01T22:34:36.845Z,51.17
2023-03-01T22:37:04.841Z,55.50
2023-03-01T22:39:34.191Z,56.27
2023-03-01T22:42:02.152Z,56.30
2023-03-01T22:44:30.118Z,57.37
2023-03-01T22:46:58.116Z,57.20
2023-03-01T22:49:26.174Z,52.70
2023-03-01T22:51:54.166Z,49.57
2023-03-01T22:54:22.246Z,49.17
2023-03-01T22:56:51.753Z,50.27
2023-03-01T22:59:23.088Z,59.20
2023-03-01T23:01:52.074Z,61.80
2023-03-01T23:04:21.606Z,66.60
2023-03-01T23:06:54.058Z,62.70
2023-03-01T23:09:25.452Z,57.10
2023-03-01T23:11:55.601Z,58.33
2023-03-01T23:14:23.800Z,57.47
2023-03-01T23:16:52.715Z,58.47
2023-03-01T23:19:21.037Z,54.30
2023-03-01T23:21:50.485Z,51.00
2023-03-01T23:24:21.370Z,53.13
2023-03-01T23:26:53.306Z,58.57
2023-03-01T23:29:23.287Z,56.63
2023-03-01T23:31:51.383Z,54.87
2023-03-01T23:34:20.050Z,58.43
2023-03-01T23:36:48.002Z,54.07
2023-03-01T23:39:16.277Z,51.70
2023-03-01T23:41:44.330Z,56.67
2023-03-01T23:44:16.090Z,55.53
2023-03-01T23:46:45.921Z,57.20
2023-03-01T23:49:15.677Z,56.93
2023-03-01T23:51:45.530Z,54.57
2023-03-01T23:54:16.105Z,57.17
2023-03-01T23:56:45.204Z,57.07
2023-03-01T23:59:15.646Z,58.97
